Time;durP1;ratioP1;P1;durP2;ratioP2;P2;SDS_P1;SDS_P2;PMS_P1;PMS_P2;Temp;Humidity;BMP_temperature;BMP_pressure;BME280_temperature;BME280_humidity;BME280_pressure;Samples;Min_cycle;Max_cycle;Signal;HPM_P1;HPM_P2
2022/02/25 00:00:52;;;;;;;101.68;96.40;;;;;;;0.90;100.00;100236.28;5035007;28;20061;-83
2022/02/25 00:03:25;;;;;;;99.68;94.47;;;;;;;0.93;100.00;100241.19;5032565;28;20045;-83
2022/02/25 00:05:58;;;;;;;104.85;99.43;;;;;;;0.91;100.00;100245.97;5032976;28;20037;-83
2022/02/25 00:08:33;;;;;;;102.65;97.30;;;;;;;0.92;100.00;100250.25;5029928;28;20068;-83
2022/02/25 00:11:06;;;;;;;106.72;101.20;;;;;;;0.91;100.00;100250.47;5028521;28;20165;-83
2022/02/25 00:13:39;;;;;;;109.10;103.47;;;;;;;1.02;100.00;100261.25;5018610;28;20472;-82
2022/02/25 00:16:12;;;;;;;106.13;100.60;;;;;;;0.98;100.00;100260.06;5023604;28;20063;-83
2022/02/25 00:18:41;;;;;;;107.63;102.07;;;;;;;0.85;100.00;100244.16;5026858;28;20042;-83
2022/02/25 00:21:09;;;;;;;110.03;104.32;;;;;;;1.00;100.00;100268.69;5031357;28;20053;-83
2022/02/25 00:23:43;;;;;;;110.13;104.38;;;;;;;1.05;100.00;100268.03;5037487;28;20414;-83
2022/02/25 00:26:16;;;;;;;116.18;110.18;;;;;;;1.00;100.00;100267.88;5049309;28;20052;-82
2022/02/25 00:28:44;;;;;;;115.05;109.05;;;;;;;1.04;100.00;100277.09;5018432;28;20068;-82
2022/02/25 00:31:18;;;;;;;124.32;117.90;;;;;;;1.18;100.00;100278.56;5033634;28;20065;-83
2022/02/25 00:33:46;;;;;;;124.30;117.90;;;;;;;1.22;100.00;100288.84;5032142;28;20045;-83
2022/02/25 00:36:19;;;;;;;127.78;121.20;;;;;;;1.28;100.00;100293.28;5034378;28;20402;-83
2022/02/25 00:38:48;;;;;;;116.57;110.50;;;;;;;1.22;100.00;100292.31;5030130;28;20056;-83
2022/02/25 00:41:22;;;;;;;123.93;117.47;;;;;;;1.17;100.00;100268.91;5022027;28;20053;-83
2022/02/25 00:43:55;;;;;;;127.88;121.22;;;;;;;1.38;100.00;100288.16;5029474;28;20053;-83
2022/02/25 00:46:28;;;;;;;128.75;122.03;;;;;;;1.47;100.00;100310.13;5024768;28;20046;-83
2022/02/25 00:49:01;;;;;;;139.90;132.57;;;;;;;1.46;100.00;100295.09;5022277;28;20053;-83
2022/02/25 00:51:34;;;;;;;141.98;134.52;;;;;;;1.47;100.00;100310.94;5034956;28;20056;-83
2022/02/25 00:54:09;;;;;;;152.65;144.65;;;;;;;1.46;100.00;100313.84;5036659;28;20053;-83
2022/02/25 00:56:42;;;;;;;157.52;149.20;;;;;;;1.50;100.00;100317.72;5032657;28;20056;-84
2022/02/25 00:59:15;;;;;;;167.68;158.70;;;;;;;1.56;100.00;100326.72;5026185;28;20053;-83
2022/02/25 01:01:48;;;;;;;180.43;170.75;;;;;;;1.60;100.00;100333.25;5025020;28;20046;-84
2022/02/25 01:04:21;;;;;;;188.25;178.20;;;;;;;1.66;100.00;100338.53;5035918;28;20065;-83
2022/02/25 01:06:55;;;;;;;199.00;188.40;;;;;;;1.66;100.00;100346.56;5031466;28;20413;-83
2022/02/25 01:09:25;;;;;;;194.60;184.07;;;;;;;1.65;100.00;100344.13;5030732;28;20049;-83
2022/02/25 01:11:53;;;;;;;224.63;212.57;;;;;;;1.60;100.00;100335.94;5026479;28;20057;-83
2022/02/25 01:14:26;;;;;;;239.88;227.10;;;;;;;1.58;100.00;100332.69;5033679;28;20049;-83
2022/02/25 01:16:59;;;;;;;252.05;238.52;;;;;;;1.74;100.00;100349.97;5030921;28;20482;-84
2022/02/25 01:19:32;;;;;;;280.35;265.20;;;;;;;1.73;100.00;100351.00;5030037;28;20049;-83
2022/02/25 01:22:06;;;;;;;273.17;258.33;;;;;;;1.76;100.00;100364.00;5024442;28;20050;-84
2022/02/25 01:24:35;;;;;;;291.45;275.40;;;;;;;1.77;100.00;100360.22;5033919;28;20077;-82
2022/02/25 01:27:10;;;;;;;320.38;302.38;;;;;;;1.83;100.00;100356.66;5033605;28;20049;-84
2022/02/25 01:29:38;;;;;;;337.67;318.67;;;;;;;1.75;100.00;100367.72;5032669;28;20053;-83
2022/02/25 01:32:11;;;;;;;356.77;336.20;;;;;;;1.51;100.00;100322.84;5033154;28;20053;-83
2022/02/25 01:34:45;;;;;;;386.88;363.90;;;;;;;1.75;100.00;100373.88;5029963;28;20062;-83
2022/02/25 01:37:18;;;;;;;423.40;397.73;;;;;;;1.77;100.00;100379.00;5029308;28;20069;-83
2022/02/25 01:39:52;;;;;;;426.38;399.98;;;;;;;1.68;100.00;100373.97;5022278;28;20045;-84
2022/02/25 01:42:26;;;;;;;482.10;451.98;;;;;;;1.67;100.00;100374.19;5033712;28;20061;-83
2022/02/25 01:44:59;;;;;;;497.42;465.58;;;;;;;1.61;100.00;100370.56;5026866;28;20053;-84
2022/02/25 01:47:32;;;;;;;551.90;516.10;;;;;;;1.62;100.00;100385.63;5028803;28;20049;-83
2022/02/25 01:50:05;;;;;;;576.67;538.53;;;;;;;1.64;100.00;100362.09;5036766;28;20053;-83
2022/02/25 01:52:43;;;;;;;632.50;590.33;;;;;;;1.69;100.00;100370.25;5033472;28;20052;-83
2022/02/25 01:55:17;;;;;;;;;;;;;;;1.75;100.00;100384.63;5030094;28;20056;-83
2022/02/25 01:57:50;;;;;;;674.42;629.22;;;;;;;1.81;100.00;100383.72;5029859;28;19943;-83
2022/02/25 02:00:24;;;;;;;745.38;694.42;;;;;;;1.78;100.00;100389.53;5037966;28;20442;-83
2022/02/25 02:02:53;;;;;;;734.10;683.95;;;;;;;1.77;100.00;100379.84;5030797;28;20056;-83
2022/02/25 02:05:21;;;;;;;756.25;704.15;;;;;;;1.72;100.00;100384.28;5029956;28;20049;-83
2022/02/25 02:07:55;;;;;;;788.30;733.40;;;;;;;1.76;100.00;100380.88;5028386;28;20045;-83
2022/02/25 02:10:29;;;;;;;755.15;702.88;;;;;;;1.66;100.00;100389.50;5028102;28;20050;-82
2022/02/25 02:13:02;;;;;;;775.97;721.90;;;;;;;1.59;100.00;100375.34;5038018;28;20049;-84
2022/02/25 02:15:35;;;;;;;777.60;723.63;;;;;;;1.58;100.00;100386.31;5029795;28;20058;-83
2022/02/25 02:18:09;;;;;;;742.83;691.67;;;;;;;1.41;100.00;100378.06;5030480;28;20045;-83
2022/02/25 02:20:42;;;;;;;743.28;692.33;;;;;;;1.48;100.00;100382.31;5039136;28;20053;-83
2022/02/25 02:23:11;;;;;;;672.53;626.97;;;;;;;1.43;100.00;100387.53;5041687;28;20446;-83
2022/02/25 02:25:44;;;;;;;654.80;610.85;;;;;;;1.34;100.00;100383.50;5039754;28;20080;-83
2022/02/25 02:28:20;;;;;;;674.83;629.15;;;;;;;1.27;100.00;100382.78;5029414;28;20058;-83
2022/02/25 02:30:49;;;;;;;640.50;597.72;;;;;;;1.28;100.00;100390.59;5027196;28;20049;-83
2022/02/25 02:33:22;;;;;;;714.90;666.55;;;;;;;1.44;100.00;100396.41;5036699;28;20053;-83
2022/02/25 02:35:50;;;;;;;753.78;701.60;;;;;;;1.45;100.00;100390.81;5038553;28;20052;-83
2022/02/25 02:38:20;;;;;;;713.63;664.85;;;;;;;1.33;100.00;100393.44;5042143;28;20050;-83
2022/02/25 02:40:53;;;;;;;657.10;612.83;;;;;;;1.25;100.00;100374.97;5035361;28;20041;-83
2022/02/25 02:43:26;;;;;;;684.50;637.80;;;;;;;1.13;100.00;100356.16;5038084;28;20061;-83
2022/02/25 02:45:59;;;;;;;731.58;681.10;;;;;;;1.43;100.00;100400.94;5037038;28;20053;-83
2022/02/25 02:48:33;;;;;;;712.25;663.15;;;;;;;1.35;100.00;100394.03;5037824;28;20405;-83
2022/02/25 02:51:06;;;;;;;686.00;639.63;;;;;;;1.31;100.00;100390.16;5031919;28;20405;-82
2022/02/25 02:53:36;;;;;;;690.00;642.78;;;;;;;1.35;100.00;100391.34;5036809;28;20045;-83
2022/02/25 02:56:10;;;;;;;730.08;680.38;;;;;;;1.35;100.00;100388.66;5038417;28;20052;-82
2022/02/25 02:58:43;;;;;;;674.20;629.08;;;;;;;1.23;100.00;100395.00;5045029;28;20409;-82
2022/02/25 03:01:16;;;;;;;691.45;644.55;;;;;;;1.24;100.00;100385.91;5046084;28;20053;-83
2022/02/25 03:03:50;;;;;;;734.38;683.90;;;;;;;1.28;100.00;100387.91;5017865;28;20057;-83
2022/02/25 03:06:18;;;;;;;759.47;707.05;;;;;;;1.30;100.00;100396.56;5026099;28;20045;-83
2022/02/25 03:08:53;;;;;;;781.65;727.60;;;;;;;1.37;100.00;100404.53;5030476;28;20053;-83
2022/02/25 03:11:26;;;;;;;774.75;721.10;;;;;;;1.41;100.00;100405.72;5030090;28;20414;-83
2022/02/25 03:13:59;;;;;;;777.80;724.10;;;;;;;1.41;100.00;100407.56;5036077;28;20072;-83
2022/02/25 03:16:33;;;;;;;758.75;706.28;;;;;;;1.39;100.00;100410.47;5034895;28;20053;-83
2022/02/25 03:19:06;;;;;;;836.97;778.10;;;;;;;1.31;100.00;100390.16;5050575;28;20048;-83
2022/02/25 03:21:34;;;;;;;954.45;883.67;;;;;;;1.55;100.00;100417.09;5025153;28;20086;-83
2022/02/25 03:24:05;;;;;;;1009.72;933.67;;;;;;;1.56;100.00;100401.81;5035726;28;20049;-83
2022/02/25 03:26:33;;;;;;;1013.88;937.30;;;;;;;1.58;100.00;100408.59;5047078;28;20049;-83
2022/02/25 03:29:06;;;;;;;1073.30;990.08;;;;;;;1.66;100.00;100415.50;5040761;28;20045;-82
2022/02/25 03:31:39;;;;;;;1066.50;983.55;;;;;;;1.63;100.00;100413.25;5025866;28;20052;-83
2022/02/25 03:34:12;;;;;;;1059.18;977.25;;;;;;;1.60;100.00;100409.19;5024271;28;20064;-83
2022/02/25 03:36:40;;;;;;;1096.80;999.90;;;;;;;1.66;100.00;100426.25;5034674;28;20041;-84
2022/02/25 03:39:15;;;;;;;1135.28;999.90;;;;;;;1.69;100.00;100431.94;5031308;28;20406;-84
2022/02/25 03:41:48;;;;;;;1111.00;999.90;;;;;;;1.66;100.00;100427.06;5035920;28;20060;-83
2022/02/25 03:44:21;;;;;;;1150.93;999.90;;;;;;;1.69;100.00;100421.22;5031984;28;20057;-83
2022/02/25 03:47:14;;;;;;;1151.82;999.90;;;;;;;1.78;100.00;100440.53;5031851;28;20397;-83
2022/02/25 03:49:42;;;;;;;1144.80;999.90;;;;;;;1.72;100.00;100438.72;5027067;28;20042;-83
2022/02/25 03:52:10;;;;;;;1168.85;999.90;;;;;;;1.86;100.00;100432.16;5040065;28;20057;-83
2022/02/25 03:54:45;;;;;;;1164.35;999.90;;;;;;;1.75;100.00;100432.09;5033806;28;20502;-82
2022/02/25 03:57:23;;;;;;;1161.47;999.90;;;;;;;1.85;100.00;100443.09;5035145;28;20421;-84
2022/02/25 03:59:57;;;;;;;1153.72;999.90;;;;;;;1.81;100.00;100429.31;5031478;28;20042;-83
2022/02/25 04:02:39;;;;;;;1164.88;999.90;;;;;;;1.76;100.00;100431.06;5028478;28;20046;-82
2022/02/25 04:05:10;;;;;;;1153.47;999.90;;;;;;;1.81;100.00;100445.44;5034770;28;20886;-84
2022/02/25 04:07:44;;;;;;;1161.93;999.90;;;;;;;1.75;100.00;100446.31;5025941;28;20045;-83
2022/02/25 04:10:14;;;;;;;1158.97;999.90;;;;;;;1.86;100.00;100442.06;5034560;28;20046;-84
2022/02/25 04:12:47;;;;;;;1155.50;999.90;;;;;;;1.81;100.00;100439.22;5033684;28;20053;-83
2022/02/25 04:15:20;;;;;;;1116.78;999.90;;;;;;;1.80;100.00;100446.47;5031012;28;20053;-83
2022/02/25 04:17:48;;;;;;;1114.63;999.90;;;;;;;1.78;100.00;100442.38;5033845;28;20053;-83
2022/02/25 04:20:21;;;;;;;1135.30;999.90;;;;;;;1.59;100.00;100429.00;5030929;28;20053;-82
2022/02/25 04:22:49;;;;;;;1146.82;999.90;;;;;;;1.82;100.00;100448.91;5027112;28;20053;-83
2022/02/25 04:25:19;;;;;;;1114.97;999.90;;;;;;;1.86;100.00;100458.16;5035051;28;20049;-83
2022/02/25 04:27:52;;;;;;;1138.78;999.90;;;;;;;1.93;100.00;100466.94;5029124;28;20037;-83
2022/02/25 04:30:26;;;;;;;1143.38;999.90;;;;;;;1.94;100.00;100473.94;5036447;28;20043;-84
2022/02/25 04:32:54;;;;;;;1141.97;999.90;;;;;;;2.00;100.00;100467.69;5037419;28;20053;-83
2022/02/25 04:35:23;;;;;;;1124.07;999.90;;;;;;;1.92;100.00;100461.78;5033484;28;20050;-83
2022/02/25 04:37:56;;;;;;;1107.88;999.90;;;;;;;1.58;100.00;100391.69;5031870;28;20044;-83
2022/02/25 04:40:26;;;;;;;1104.00;999.90;;;;;;;1.79;100.00;100422.56;5033227;28;20045;-82
2022/02/25 04:42:54;;;;;;;1088.10;998.83;;;;;;;2.06;100.00;100460.56;5036881;28;20045;-82
2022/02/25 04:45:27;;;;;;;1065.70;984.35;;;;;;;2.08;100.00;100460.34;5046341;28;20045;-82
2022/02/25 04:47:57;;;;;;;1041.60;962.78;;;;;;;1.86;100.00;100428.63;5029619;28;20681;-83
2022/02/25 04:50:30;;;;;;;963.03;892.78;;;;;;;2.14;100.00;100462.09;5038085;28;20051;-83
2022/02/25 04:53:03;;;;;;;983.40;911.25;;;;;;;2.09;100.00;100470.84;5034144;28;20395;-83
2022/02/25 04:55:38;;;;;;;922.45;856.17;;;;;;;2.12;100.00;100475.75;5025289;28;20072;-83
2022/02/25 04:58:06;;;;;;;880.03;818.40;;;;;;;2.06;100.00;100471.31;5037658;28;20046;-83
2022/02/25 05:00:36;;;;;;;828.60;770.95;;;;;;;2.03;100.00;100472.56;5030226;28;20642;-83
2022/02/25 05:03:10;;;;;;;783.25;730.30;;;;;;;2.01;100.00;100482.72;5031791;28;20057;-83
2022/02/25 05:05:43;;;;;;;788.72;735.15;;;;;;;2.02;100.00;100484.34;5027530;28;20055;-83
2022/02/25 05:08:11;;;;;;;687.00;640.95;;;;;;;1.95;100.00;100488.19;5036961;28;20045;-82
2022/02/25 05:10:46;;;;;;;576.72;539.63;;;;;;;2.00;100.00;100491.84;5037793;28;20367;-82
2022/02/25 05:13:21;;;;;;;582.42;544.85;;;;;;;1.98;100.00;100477.00;5043735;28;20060;-83
2022/02/25 05:21:37;;;;;;;553.75;518.33;;;;;;;1.94;100.00;100470.44;5028093;28;20045;-82
2022/02/25 05:24:10;;;;;;;494.30;462.92;;;;;;;2.10;100.00;100485.06;5034463;28;20053;-83
2022/02/25 05:26:45;;;;;;;446.42;419.27;;;;;;;2.10;100.00;100485.91;5037016;28;20481;-82
2022/02/25 05:29:18;;;;;;;408.65;384.08;;;;;;;2.08;100.00;100493.34;5039018;28;20505;-83
2022/02/25 05:31:51;;;;;;;412.35;387.00;;;;;;;2.14;100.00;100505.03;5039234;28;20045;-82
2022/02/25 05:34:20;;;;;;;382.92;360.48;;;;;;;2.12;100.00;100502.59;5033411;28;20053;-83
2022/02/25 05:36:53;;;;;;;393.70;370.45;;;;;;;1.91;100.00;100454.81;5033697;28;20057;-82
2022/02/25 05:39:26;;;;;;;357.05;336.30;;;;;;;2.03;100.00;100488.69;5031982;28;20053;-83
2022/02/25 05:42:00;;;;;;;347.88;327.80;;;;;;;2.11;100.00;100500.94;5031568;28;20036;-82
2022/02/25 05:44:34;;;;;;;320.88;302.95;;;;;;;2.15;100.00;100523.59;5035894;28;20048;-82
2022/02/25 05:47:02;;;;;;;285.05;269.73;;;;;;;2.02;100.00;100500.47;5036939;28;20049;-83
2022/02/25 05:49:35;;;;;;;255.82;241.98;;;;;;;2.13;100.00;100514.97;5025008;28;20050;-83
2022/02/25 05:52:04;;;;;;;256.88;243.07;;;;;;;2.07;100.00;100510.50;5036628;28;20046;-84
2022/02/25 05:54:37;;;;;;;225.10;213.00;;;;;;;1.86;100.00;100509.13;5034692;28;20061;-82
2022/02/25 05:57:06;;;;;;;207.85;196.75;;;;;;;1.80;100.00;100516.22;5036406;28;20045;-83
2022/02/25 05:59:39;;;;;;;178.70;169.10;;;;;;;1.73;100.00;100526.22;5054261;28;20053;-81
2022/02/25 06:02:12;;;;;;;172.32;163.10;;;;;;;1.72;100.00;100521.09;5028100;28;20050;-83
2022/02/25 06:04:45;;;;;;;159.38;150.90;;;;;;;1.61;100.00;100533.38;5034812;28;20076;-82
2022/02/25 06:07:14;;;;;;;164.23;155.48;;;;;;;1.81;100.00;100541.19;5030236;28;20061;-84
2022/02/25 06:09:42;;;;;;;164.32;155.57;;;;;;;1.82;100.00;100540.16;5035794;28;20053;-83
2022/02/25 06:12:16;;;;;;;166.73;157.88;;;;;;;1.83;100.00;100537.25;5037675;28;20053;-82
2022/02/25 06:14:49;;;;;;;169.27;160.20;;;;;;;1.81;100.00;100542.03;5039416;28;20053;-83
2022/02/25 06:17:22;;;;;;;162.70;153.98;;;;;;;1.86;100.00;100534.13;5033997;28;20056;-84
2022/02/25 06:19:56;;;;;;;164.60;155.85;;;;;;;1.85;100.00;100543.22;5034229;28;20049;-82
2022/02/25 06:22:24;;;;;;;165.60;156.82;;;;;;;1.93;100.00;100546.63;5038811;28;20065;-83
2022/02/25 06:24:57;;;;;;;166.27;157.43;;;;;;;1.94;100.00;100545.59;5037916;28;20060;-84
2022/02/25 06:27:31;;;;;;;165.52;156.73;;;;;;;1.96;100.00;100552.38;5035663;28;20041;-82
2022/02/25 06:30:00;;;;;;;149.07;141.23;;;;;;;1.88;100.00;100528.53;5035741;28;20068;-82
2022/02/25 06:32:34;;;;;;;152.30;144.25;;;;;;;2.11;100.00;100560.00;5038950;28;20417;-81
2022/02/25 06:35:08;;;;;;;150.57;142.65;;;;;;;2.09;100.00;100561.31;5049303;28;20049;-83
2022/02/25 06:37:41;;;;;;;144.45;136.82;;;;;;;2.09;100.00;100554.06;5023561;28;20049;-83
2022/02/25 06:40:14;;;;;;;147.90;140.15;;;;;;;2.08;100.00;100555.09;5034727;28;20060;-84
2022/02/25 06:42:49;;;;;;;140.20;132.82;;;;;;;2.07;100.00;100560.69;5035331;28;20060;-82
2022/02/25 06:45:19;;;;;;;144.02;136.52;;;;;;;2.05;100.00;100539.44;5032994;28;20054;-82
2022/02/25 06:47:48;;;;;;;132.85;125.93;;;;;;;2.06;100.00;100549.16;5029761;28;20410;-83
2022/02/25 06:50:21;;;;;;;121.40;115.10;;;;;;;1.95;100.00;100545.38;5034998;28;20044;-83
2022/02/25 06:52:55;;;;;;;116.45;110.45;;;;;;;1.84;100.00;100546.94;5029665;28;20046;-82
2022/02/25 06:55:28;;;;;;;108.95;103.28;;;;;;;1.80;100.00;100526.16;5035228;28;20398;-82
2022/02/25 06:57:57;;;;;;;110.63;104.90;;;;;;;1.86;100.00;100541.34;5025789;28;20045;-85
2022/02/25 07:00:31;;;;;;;108.05;102.43;;;;;;;1.77;100.00;100534.63;5030218;28;20410;-83
2022/02/25 07:03:05;;;;;;;108.70;103.03;;;;;;;1.84;100.00;100544.25;5045550;28;20068;-81
2022/02/25 07:05:39;;;;;;;113.45;107.55;;;;;;;1.84;100.00;100541.56;5022702;28;20386;-82
2022/02/25 07:08:12;;;;;;;112.07;106.30;;;;;;;1.85;100.00;100545.91;5032764;28;20049;-82
2022/02/25 07:10:41;;;;;;;113.10;107.25;;;;;;;1.94;100.00;100548.28;5030899;28;20053;-83
2022/02/25 07:13:16;;;;;;;112.88;107.03;;;;;;;1.86;100.00;100542.19;5026655;28;20054;-83
2022/02/25 07:15:50;;;;;;;110.28;104.55;;;;;;;1.97;100.00;100537.09;5019944;28;20034;-83
2022/02/25 07:18:18;;;;;;;111.70;105.90;;;;;;;1.91;100.00;100549.53;5021315;28;20053;-83
2022/02/25 07:20:51;;;;;;;104.55;99.10;;;;;;;1.87;100.00;100559.91;5031212;28;20053;-83
2022/02/25 07:23:26;;;;;;;103.70;98.28;;;;;;;1.93;100.00;100560.03;5031422;28;20068;-83
2022/02/25 07:25:59;;;;;;;106.78;101.20;;;;;;;1.91;100.00;100554.91;5026798;28;20048;-81
2022/02/25 07:28:33;;;;;;;109.38;103.68;;;;;;;1.88;100.00;100560.72;5018576;28;20060;-83
2022/02/25 07:31:07;;;;;;;104.45;99.00;;;;;;;1.92;100.00;100561.94;5017278;28;20049;-81
2022/02/25 07:33:40;;;;;;;107.57;101.95;;;;;;;1.99;100.00;100573.38;5019832;28;20045;-82
2022/02/25 07:36:08;;;;;;;107.35;101.75;;;;;;;2.10;100.00;100555.72;5021936;28;20053;-83
2022/02/25 07:38:41;;;;;;;115.22;109.30;;;;;;;2.23;100.00;100581.56;5020989;28;20080;-81
2022/02/25 07:41:14;;;;;;;110.95;105.15;;;;;;;2.30;100.00;100578.78;5019985;28;20812;-83
2022/02/25 07:43:53;;;;;;;115.28;109.28;;;;;;;2.34;100.00;100561.16;5018088;28;20580;-84
2022/02/25 07:46:21;;;;;;;109.57;103.88;;;;;;;2.44;100.00;100582.09;5019437;28;20065;-83
2022/02/25 07:48:54;;;;;;;111.75;105.97;;;;;;;2.48;100.00;100569.84;5019065;28;20064;-82
2022/02/25 07:51:27;;;;;;;109.20;103.53;;;;;;;2.53;100.00;100560.06;5028915;28;20053;-82
2022/02/25 07:54:03;;;;;;;89.75;85.05;;;;;;;2.43;100.00;100578.63;5019151;28;20060;-81
2022/02/25 07:56:31;;;;;;;83.55;79.13;;;;;;;2.29;100.00;100552.97;5024646;28;20045;-82
2022/02/25 07:59:06;;;;;;;86.40;81.88;;;;;;;2.42;100.00;100574.28;5024114;28;20042;-82
2022/02/25 08:01:39;;;;;;;79.75;75.50;;;;;;;2.38;100.00;100567.72;5021483;28;20045;-85
2022/02/25 08:04:12;;;;;;;75.28;71.28;;;;;;;2.36;100.00;100583.22;5022005;28;20045;-85
2022/02/25 08:06:45;;;;;;;74.72;70.75;;;;;;;2.34;100.00;100563.84;5021623;28;20885;-85
2022/02/25 08:09:14;;;;;;;74.80;70.80;;;;;;;2.46;100.00;100580.00;5022173;28;20060;-82
2022/02/25 08:11:47;;;;;;;70.30;66.55;;;;;;;2.34;100.00;100571.91;5022880;28;20054;-82
2022/02/25 08:14:22;;;;;;;71.30;67.50;;;;;;;2.42;100.00;100574.28;5019027;28;20660;-81
2022/02/25 08:16:55;;;;;;;71.43;67.63;;;;;;;2.48;100.00;100575.22;5020860;28;20061;-83
2022/02/25 08:19:28;;;;;;;74.43;70.43;;;;;;;2.59;100.00;100571.75;5020492;28;21330;-81
2022/02/25 08:21:56;;;;;;;73.07;69.18;;;;;;;2.64;100.00;100582.63;5022867;28;20053;-81
2022/02/25 08:24:29;;;;;;;70.93;67.13;;;;;;;2.70;100.00;100587.09;5017684;28;20069;-82
2022/02/25 08:26:57;;;;;;;68.47;64.80;;;;;;;2.83;100.00;100572.66;5019607;28;20077;-81
2022/02/25 08:29:32;;;;;;;72.57;68.68;;;;;;;3.05;100.00;100588.19;5024240;28;20054;-82
2022/02/25 08:32:06;;;;;;;80.05;75.80;;;;;;;3.12;100.00;100590.78;5021453;28;20053;-81
2022/02/25 08:34:40;;;;;;;73.00;69.10;;;;;;;3.11;100.00;100589.97;5019106;28;20171;-83
2022/02/25 08:37:13;;;;;;;59.83;56.63;;;;;;;2.79;100.00;100559.88;5017038;28;20057;-84
2022/02/25 08:39:46;;;;;;;47.25;44.70;;;;;;;3.05;100.00;100612.41;5018229;28;20064;-81
2022/02/25 08:42:19;;;;;;;44.70;42.30;;;;;;;3.09;100.00;100608.19;5009815;28;20049;-82
2022/02/25 08:44:54;;;;;;;44.45;42.05;;;;;;;3.00;100.00;100612.28;5016415;28;20057;-83
2022/02/25 08:47:27;;;;;;;41.45;39.22;;;;;;;2.93;100.00;100622.31;5013636;28;20068;-83
2022/02/25 08:50:00;;;;;;;47.25;44.75;;;;;;;2.86;100.00;100612.50;5011169;28;20057;-80
2022/02/25 08:52:33;;;;;;;48.85;46.25;;;;;;;2.80;100.00;100626.03;5012808;28;20658;-82
2022/02/25 08:55:08;;;;;;;42.45;40.17;;;;;;;2.69;100.00;100628.47;5010488;28;20064;-83
2022/02/25 08:57:42;;;;;;;40.80;38.60;;;;;;;2.68;100.00;100616.06;5013316;28;20057;-81
2022/02/25 09:00:20;;;;;;;40.20;38.00;;;;;;;2.63;100.00;100615.13;5012817;28;20065;-81
2022/02/25 09:02:57;;;;;;;39.95;37.78;;;;;;;2.76;100.00;100604.16;5009088;28;20068;-82
2022/02/25 09:05:30;;;;;;;45.20;42.78;;;;;;;2.85;100.00;100618.09;5012650;28;21261;-83
2022/02/25 09:08:04;;;;;;;46.55;44.05;;;;;;;3.01;100.00;100630.88;5008551;28;20057;-84
2022/02/25 09:10:37;;;;;;;46.75;44.25;;;;;;;2.96;100.00;100620.00;5009364;28;20072;-82
2022/02/25 09:13:05;;;;;;;50.20;47.53;;;;;;;3.03;100.00;100619.91;5007128;28;20618;-82
2022/02/25 09:15:34;;;;;;;54.78;51.88;;;;;;;2.87;100.00;100597.19;5010038;28;20580;-82
2022/02/25 09:18:10;;;;;;;48.67;46.08;;;;;;;2.77;100.00;100615.75;5010589;28;20096;-81
2022/02/25 09:20:39;;;;;;;49.33;46.67;;;;;;;2.79;100.00;100611.78;5010640;28;20053;-82
2022/02/25 09:23:12;;;;;;;44.78;42.38;;;;;;;2.70;100.00;100623.91;5012769;28;20061;-80
2022/02/25 09:25:40;;;;;;;45.35;42.90;;;;;;;2.69;100.00;100619.56;5009618;28;20494;-81
2022/02/25 09:28:14;;;;;;;46.47;43.97;;;;;;;2.77;100.00;100623.81;5010423;28;20057;-80
2022/02/25 09:30:44;;;;;;;48.45;45.85;;;;;;;2.74;100.00;100627.75;5006109;28;20056;-81
2022/02/25 09:33:17;;;;;;;50.65;47.95;;;;;;;2.82;100.00;100622.06;5010166;28;20045;-83
2022/02/25 09:35:45;;;;;;;53.70;50.83;;;;;;;2.84;100.00;100611.88;5004457;28;20057;-81
2022/02/25 09:38:18;;;;;;;50.97;48.22;;;;;;;2.92;100.00;100618.00;5018651;28;20690;-81
2022/02/25 09:40:51;;;;;;;48.70;46.10;;;;;;;2.87;100.00;100621.38;5008642;28;20046;-81
2022/02/25 09:43:19;;;;;;;45.83;43.38;;;;;;;2.81;100.00;100619.63;5010471;28;20061;-82
2022/02/25 09:45:54;;;;;;;47.47;44.97;;;;;;;2.86;100.00;100636.69;5005564;28;20061;-82
2022/02/25 09:48:27;;;;;;;47.70;45.13;;;;;;;2.91;100.00;100635.97;5013603;28;20068;-83
2022/02/25 09:51:00;;;;;;;48.58;45.97;;;;;;;2.98;100.00;100657.41;5014407;28;20065;-83
2022/02/25 09:53:35;;;;;;;44.30;41.90;;;;;;;2.91;100.00;100640.56;5013943;28;20045;-84
2022/02/25 09:56:08;;;;;;;45.65;43.17;;;;;;;3.17;100.00;100658.16;5007191;28;20448;-82
2022/02/25 09:58:42;;;;;;;48.08;45.47;;;;;;;3.34;100.00;100661.81;5007175;28;20502;-81
2022/02/25 10:01:18;;;;;;;45.35;42.92;;;;;;;3.39;100.00;100645.78;5004862;28;20057;-81
2022/02/25 10:03:52;;;;;;;45.25;42.83;;;;;;;3.58;100.00;100651.06;5004380;28;20053;-82
2022/02/25 10:06:30;;;;;;;46.92;44.42;;;;;;;3.55;100.00;100638.06;5005926;28;20061;-80
2022/02/25 10:09:00;;;;;;;50.72;48.03;;;;;;;3.94;100.00;100656.44;5012328;28;20054;-81
2022/02/25 10:12:01;;;;;;;44.97;42.58;;;;;;;3.73;100.00;100659.47;5004530;28;20057;-81
2022/02/25 10:14:36;;;;;;;41.20;39.00;;;;;;;3.62;100.00;100664.84;5011255;28;20060;-82
2022/02/25 10:17:12;;;;;;;39.92;37.75;;;;;;;3.66;100.00;100666.03;5013557;28;20054;-82
2022/02/25 10:19:42;;;;;;;42.67;40.38;;;;;;;3.70;100.00;100672.56;5009375;28;20053;-81
2022/02/25 10:22:21;;;;;;;41.47;39.25;;;;;;;3.65;100.00;100659.81;5012495;28;20671;-81
2022/02/25 10:24:53;;;;;;;42.65;40.35;;;;;;;3.67;100.00;100676.53;5010938;28;20045;-83
2022/02/25 10:27:24;;;;;;;40.88;38.67;;;;;;;3.62;100.00;100657.63;5011168;28;20045;-82
2022/02/25 10:30:01;;;;;;;36.72;34.72;;;;;;;3.54;100.00;100666.84;5010035;28;22188;-81
2022/02/25 10:32:40;;;;;;;34.58;32.67;;;;;;;3.62;100.00;100663.00;5010541;28;20050;-82
2022/02/25 10:35:24;;;;;;;34.95;33.05;;;;;;;3.66;100.00;100669.56;5008918;28;20057;-82
2022/02/25 10:37:55;;;;;;;38.60;36.50;;;;;;;3.64;100.00;100650.09;5010044;28;20057;-83
2022/02/25 10:40:31;;;;;;;35.13;33.22;;;;;;;3.84;100.00;100670.47;5009622;28;20057;-84
2022/02/25 10:43:09;;;;;;;36.55;34.55;;;;;;;3.94;100.00;100661.81;5006783;28;20053;-83
2022/02/25 10:45:39;;;;;;;41.28;39.08;;;;;;;4.20;100.00;100660.47;5009881;28;20064;-84
2022/02/25 10:48:12;;;;;;;40.92;38.72;;;;;;;4.20;100.00;100663.19;5012369;28;20054;-85
2022/02/25 10:50:47;;;;;;;40.92;38.72;;;;;;;4.07;100.00;100670.47;5012760;28;20060;-85
2022/02/25 10:53:16;;;;;;;32.47;30.67;;;;;;;3.83;100.00;100668.84;5010102;28;20073;-85
2022/02/25 10:55:48;;;;;;;34.55;32.65;;;;;;;3.80;100.00;100645.06;5013311;28;20053;-85
2022/02/25 10:58:17;;;;;;;34.00;32.15;;;;;;;3.59;100.00;100636.56;5011135;28;20600;-85
2022/02/25 11:00:59;;;;;;;40.22;38.03;;;;;;;3.67;100.00;100673.84;5019244;28;20050;-85
2022/02/25 11:03:34;;;;;;;39.22;37.13;;;;;;;3.37;100.00;100672.09;5012667;28;20049;-84
2022/02/25 11:06:08;;;;;;;39.88;37.72;;;;;;;3.46;100.00;100663.69;5012912;28;20053;-84
2022/02/25 11:08:37;;;;;;;40.55;38.35;;;;;;;3.40;100.00;100686.97;5015785;28;20057;-84
2022/02/25 11:11:11;;;;;;;39.78;37.65;;;;;;;3.38;100.00;100675.59;5011804;28;20504;-83
2022/02/25 11:13:45;;;;;;;42.58;40.30;;;;;;;3.18;100.00;100679.44;5009227;28;20054;-83
2022/02/25 11:16:20;;;;;;;44.10;41.70;;;;;;;3.04;100.00;100678.81;5015178;28;20702;-84
2022/02/25 11:18:56;;;;;;;42.42;40.15;;;;;;;3.06;100.00;100684.75;5008591;28;20068;-83
2022/02/25 11:21:30;;;;;;;46.03;43.55;;;;;;;3.01;100.00;100691.88;5012600;28;20053;-83
2022/02/25 11:24:00;;;;;;;46.45;43.95;;;;;;;3.04;100.00;100684.19;5009161;28;20057;-84
2022/02/25 11:26:33;;;;;;;50.80;48.10;;;;;;;3.25;100.00;100689.28;5012702;28;20053;-83
2022/02/25 11:29:06;;;;;;;50.90;48.20;;;;;;;3.15;100.00;100685.28;5006529;28;20049;-81